Ankara, Turkey

8:17 PM EEST on October 24, 2014 (GMT +0300)
Esenboga | Change Station
CLOSE
Current Station
Airport
Location: Ankara,
Elevation: 3114 ft
Nearby Weather Stations

Elev 3114 ft 40.13 °N, 33.00 °E | Updated 27 minutes ago

Scattered Clouds
Scattered Clouds
50 °F
Feels Like 50 °F
N
8
Wind Variable Wind from NNE

Today
High -- | Low -- °F
--% Chance of Precip.
Yesterday
High -- | Low -- °F
Precip. -- in
7:07 AM 5:55 PM
New Moon, 1% visible
Pressure 30.04 in
Visibility 6.2 miles
Clouds Few 4000 ft
Scattered Clouds 10000 ft
Dew Point 48 °F
Humidity 94%
Rainfall 0.00 in
Snow Depth Not available.
UV 0 out of 12
Pollen Not available.
Air Quality Not available.
Flu Activity Not available.
METAR LTAC 241650Z 02007KT 9999 FEW040 SCT100 10/09 Q1017 NOSIG

More Conditions Fewer Conditions

Pressure 30.04 in
Visibility 6.2 miles
Clouds Few 4000 ft
Scattered Clouds 10000 ft
Dew Point 48 °F
Humidity 94%
Rainfall 0.00 in
Snow Depth Not available.
UV 0 out of 12
Pollen Not available.
Air Quality Not available.
Flu Activity Not available.
METAR LTAC 241650Z 02007KT 9999 FEW040 SCT100 10/09 Q1017 NOSIG

More Conditions Fewer Conditions

10-Day Weather Forecast

Almanac

Astronomy

Oct. 24, 2014 Rise Set
Actual Time 7:07 AM EEST 5:55 PM EEST
Civil Twilight 6:40 AM EEST 6:23 PM EEST
Nautical Twilight 6:08 AM EEST 6:55 PM EEST
Astronomical Twilight 5:37 AM EEST 7:26 PM EEST
Moon 7:26 AM EEST 6:22 PM EEST
Length of Visible Light 11h 43m
Length of Day
10h 47m
Tomorrow will be 2m 27s shorter.
New Moon, 1% of the Moon is Illuminated
Today
New Moon
Oct 30
First Quarter
Nov 6
Full
Nov 14
Last Quarter
Nov 22
New

Today's Extremes

Country Highs Country Lows

Community

WunderPhotos

Upload Photos

1,764,617 photos uploaded!

WunderBlogs® & News

Nearby

Snow Depth

Not available.

Earthquake Activity

City Distance Mag. Time & Date
No recent earthquake activity has been reported nearby.
Minimum magnitude displayed is 2.5.

Coastal Water Temperatures

Place Temperature
No Stations Reporting

Nearby Weather Stations